LL44 weather

Trovero Airport
Peru, Illinois, United States

Public forecast

Using degrees Fahrenheit for public forecast. Weather courtesy of forecast.io.

METAR (pilot weather report)

Closest report is Illinois Valley Regional Airport-Walter A Duncan Field, 3.8 nm (7.0 km) NNW. Retrieved 2019/08/21 15:35 UTC (1 minute ago):

KVYS 211535Z AUTO 24006KT 10SM SCT012 SCT018 25/22 A3001 RMK AO2 T02490215

TAF (pilot weather forecast)

Closest forecast is General Wayne A. Downing Peoria International Airport, 46.4 nm (85.9 km) SW. Retrieved 2019/08/21 12:42 UTC (3 hours ago):

TAF KPIA 211139Z 2112/2212 19003KT 1/4SM FG VV002 TEMPO 2112/2114 2SM BR FM211400 30007KT P6SM BKN020 FM211700 31011KT P6SM BKN035 BKN180 PROB30 2122/2124 3SM -TSRA BKN030CB FM220100 34006KT P6SM BKN040 BKN100